Time;durP1;ratioP1;P1;durP2;ratioP2;P2;SDS_P1;SDS_P2;PMS_P1;PMS_P2;Temp;Humidity;BMP_temperature;BMP_pressure;BME280_temperature;BME280_humidity;BME280_pressure;Samples;Min_cycle;Max_cycle;Signal;HPM_P1;HPM_P2
2020/12/14 00:01:41;;;;;;;21.25;14.05;;;;;;;5.28;70.86;99583.44;4190985;34;32361;-96
2020/12/14 00:04:52;;;;;;;21.05;15.05;;;;;;;5.28;71.09;99586.09;4215309;34;33165;-96
2020/12/14 00:07:30;;;;;;;25.67;14.75;;;;;;;5.11;71.67;99594.03;4228118;33;33799;-96
2020/12/14 00:10:15;;;;;;;21.90;13.25;;;;;;;4.82;72.11;99604.16;4193217;34;34760;-93
2020/12/14 00:12:47;;;;;;;20.42;13.73;;;;;;;5.20;70.85;99594.09;4218151;33;33623;-95
2020/12/14 00:15:32;;;;;;;23.58;13.30;;;;;;;4.87;71.99;99600.03;4231759;33;33309;-96
2020/12/14 00:18:04;;;;;;;25.45;14.93;;;;;;;5.12;70.87;99598.41;4233210;33;34443;-96
2020/12/14 00:20:49;;;;;;;25.25;14.40;;;;;;;4.65;72.66;99606.69;4201380;34;34646;-93
2020/12/14 00:23:22;;;;;;;21.23;13.73;;;;;;;4.85;72.05;99610.06;4201905;34;33936;-95
2020/12/14 00:26:07;;;;;;;22.23;12.98;;;;;;;5.18;70.19;99612.16;4231044;33;33666;-96
2020/12/14 00:28:39;;;;;;;23.83;13.32;;;;;;;5.26;70.21;99613.06;4202550;33;34438;-96
2020/12/14 00:31:29;;;;;;;22.23;13.60;;;;;;;4.99;71.24;99608.66;4220011;33;34193;-95
2020/12/14 00:34:01;;;;;;;22.67;13.95;;;;;;;4.81;72.18;99615.88;4234077;33;32411;-96
2020/12/14 00:36:50;;;;;;;20.15;13.93;;;;;;;5.26;70.71;99614.91;4194871;34;32805;-96
2020/12/14 00:39:22;;;;;;;24.30;13.60;;;;;;;4.96;71.70;99622.38;4196550;34;34791;-96
2020/12/14 00:42:08;;;;;;;19.52;12.75;;;;;;;4.84;71.82;99631.66;4188153;34;34315;-95
2020/12/14 00:44:40;;;;;;;16.30;11.88;;;;;;;5.61;68.84;99631.88;4221984;33;33683;-95
2020/12/14 00:47:24;;;;;;;18.48;10.95;;;;;;;4.98;70.66;99639.12;4200042;34;33867;-93
2020/12/14 00:49:57;;;;;;;21.25;13.02;;;;;;;4.85;70.77;99631.50;4181851;34;34380;-94
2020/12/14 00:52:42;;;;;;;19.80;11.73;;;;;;;4.59;71.49;99628.72;4202357;34;33310;-96
2020/12/14 00:55:42;;;;;;;19.45;11.95;;;;;;;4.97;70.46;99637.47;4210304;34;32464;-96
2020/12/14 00:58:28;;;;;;;17.02;11.27;;;;;;;5.06;70.24;99646.38;4198160;34;33306;-96
2020/12/14 01:01:01;;;;;;;17.90;12.05;;;;;;;4.89;70.52;99640.03;4181094;34;33686;-95
2020/12/14 01:03:34;;;;;;;18.62;12.45;;;;;;;4.69;70.82;99653.59;4153500;34;33909;-95
2020/12/14 01:06:07;;;;;;;16.98;11.88;;;;;;;4.93;69.85;99662.84;4152929;34;34121;-95
2020/12/14 01:08:51;;;;;;;19.40;11.45;;;;;;;4.51;71.86;99666.13;4148391;34;34337;-95
2020/12/14 01:11:25;;;;;;;16.75;10.88;;;;;;;4.54;71.42;99668.50;4130303;34;35097;-96
2020/12/14 01:14:12;;;;;;;20.37;11.80;;;;;;;4.74;71.18;99670.03;4152039;34;36658;-95
2020/12/14 01:16:47;;;;;;;17.50;10.70;;;;;;;5.24;68.94;99665.13;4161658;34;34256;-95
2020/12/14 01:19:33;;;;;;;17.55;11.85;;;;;;;5.16;69.02;99665.06;4196335;34;32992;-96
2020/12/14 01:22:06;;;;;;;15.00;9.52;;;;;;;4.38;71.70;99669.12;4195531;34;33016;-95
2020/12/14 01:24:51;;;;;;;15.73;10.13;;;;;;;4.71;70.15;99675.69;4203151;34;33226;-94
2020/12/14 01:27:23;;;;;;;16.15;10.38;;;;;;;4.57;70.62;99673.53;4207654;34;34173;-93
2020/12/14 01:30:10;;;;;;;16.92;10.68;;;;;;;4.45;71.14;99669.38;4179580;34;34647;-95
2020/12/14 01:32:43;;;;;;;14.77;10.38;;;;;;;4.62;70.98;99663.22;4181872;34;34782;-94
2020/12/14 01:35:28;;;;;;;15.32;10.23;;;;;;;4.78;70.26;99675.94;4182392;34;32568;-94
2020/12/14 01:38:00;;;;;;;14.85;10.65;;;;;;;4.66;70.22;99663.75;4166421;34;32995;-95
2020/12/14 01:40:47;;;;;;;17.80;11.43;;;;;;;4.23;71.51;99672.28;4212842;34;32854;-96
2020/12/14 01:43:22;;;;;;;15.35;10.68;;;;;;;4.49;70.73;99681.47;4208321;34;34523;-96
2020/12/14 01:46:11;;;;;;;20.05;11.20;;;;;;;4.38;71.47;99691.38;4191729;34;34034;-96
2020/12/14 01:48:43;;;;;;;18.37;10.23;;;;;;;5.07;69.22;99696.28;4184419;34;34552;-94
2020/12/14 01:51:36;;;;;;;17.40;11.18;;;;;;;4.52;70.79;99689.19;4197985;34;32749;-95
2020/12/14 01:54:22;;;;;;;19.30;10.35;;;;;;;4.99;68.96;99688.19;4197802;34;34893;-96
2020/12/14 01:57:19;;;;;;;20.20;10.93;;;;;;;4.78;69.60;99682.13;4193601;34;31835;-93
2020/12/14 01:59:51;;;;;;;16.05;10.70;;;;;;;4.78;69.40;99687.47;4197420;34;34513;-93
2020/12/14 02:02:27;;;;;;;15.10;10.02;;;;;;;5.16;67.94;99686.50;4207212;34;34222;-96
2020/12/14 02:05:14;;;;;;;13.35;8.95;;;;;;;5.01;68.26;99692.38;4205721;34;33745;-95
2020/12/14 02:07:47;;;;;;;15.48;10.27;;;;;;;4.61;69.73;99696.34;4218960;34;33552;-95
2020/12/14 02:10:35;;;;;;;15.75;10.60;;;;;;;4.77;69.69;99693.84;4222289;33;34849;-96
2020/12/14 02:13:07;;;;;;;15.60;9.73;;;;;;;4.83;69.28;99697.72;4220219;33;34641;-96
2020/12/14 02:15:52;;;;;;;13.52;9.40;;;;;;;4.63;69.64;99694.34;4212869;33;34855;-94
2020/12/14 02:18:24;;;;;;;14.43;9.60;;;;;;;4.63;69.96;99705.06;4207859;33;34169;-95
2020/12/14 02:21:42;;;;;;;14.63;9.25;;;;;;;4.75;69.94;99703.00;4184065;34;35932;-96
2020/12/14 02:24:15;;;;;;;16.17;10.35;;;;;;;4.87;69.22;99700.97;4182811;34;33444;-96
2020/12/14 02:27:00;;;;;;;16.65;9.40;;;;;;;5.12;67.97;99700.22;4212850;33;32959;-94
2020/12/14 02:29:32;;;;;;;15.25;9.98;;;;;;;5.04;67.91;99702.78;4214341;33;32469;-94
2020/12/14 02:32:18;;;;;;;13.70;9.52;;;;;;;4.58;69.77;99707.31;4181461;34;32381;-93
2020/12/14 02:34:51;;;;;;;14.82;10.00;;;;;;;5.00;68.66;99703.25;4196602;34;34204;-94
2020/12/14 02:37:38;;;;;;;13.98;9.50;;;;;;;4.75;69.65;99706.53;4210777;33;33138;-96
2020/12/14 02:40:10;;;;;;;14.57;9.77;;;;;;;5.02;68.41;99710.16;4215345;33;34040;-94
2020/12/14 02:42:55;;;;;;;15.68;10.32;;;;;;;5.02;68.00;99712.84;4203002;34;32612;-94
2020/12/14 02:45:27;;;;;;;13.10;8.48;;;;;;;5.20;67.63;99712.00;4177915;34;34879;-94
2020/12/14 02:48:12;;;;;;;14.15;9.38;;;;;;;5.13;67.18;99707.25;4215112;34;34581;-95
2020/12/14 02:50:44;;;;;;;15.38;10.45;;;;;;;4.89;68.57;99721.22;4215947;34;34541;-95
2020/12/14 02:53:29;;;;;;;15.05;9.52;;;;;;;4.91;69.17;99716.59;4197402;34;34546;-95
2020/12/14 02:56:05;;;;;;;14.63;9.25;;;;;;;5.41;67.05;99712.50;4211418;34;34108;-96
2020/12/14 02:58:53;;;;;;;13.48;9.13;;;;;;;5.26;67.64;99722.09;4212738;34;34316;-93
2020/12/14 03:01:25;;;;;;;14.57;9.10;;;;;;;5.11;67.85;99719.94;4214631;33;33997;-94
2020/12/14 03:04:01;;;;;;;13.93;9.90;;;;;;;4.94;68.07;99726.16;4193765;34;34715;-96
2020/12/14 03:06:33;;;;;;;12.55;8.57;;;;;;;5.20;67.37;99731.59;4205700;34;34444;-95
2020/12/14 03:09:20;;;;;;;14.60;8.75;;;;;;;4.78;69.12;99738.34;4181723;34;36559;-95
2020/12/14 03:11:53;;;;;;;12.77;9.35;;;;;;;4.79;69.03;99744.56;4202789;34;34239;-96
2020/12/14 03:14:37;;;;;;;15.10;10.30;;;;;;;5.03;68.47;99741.31;4200874;34;33735;-94
2020/12/14 03:17:10;;;;;;;13.32;8.32;;;;;;;4.64;69.70;99744.22;4205285;34;32621;-94
2020/12/14 03:19:57;;;;;;;18.15;10.43;;;;;;;5.19;67.89;99743.28;4175341;34;34216;-96
2020/12/14 03:22:30;;;;;;;14.82;9.88;;;;;;;5.46;67.41;99746.91;4195457;34;34064;-96
2020/12/14 03:25:17;;;;;;;14.10;9.10;;;;;;;5.42;66.54;99749.06;4217254;28;32264;-96
2020/12/14 03:28:14;;;;;;;13.68;9.43;;;;;;;5.33;66.84;99747.31;4204334;34;34833;-94
2020/12/14 03:31:12;;;;;;;14.07;9.60;;;;;;;5.38;67.09;99747.66;4192954;34;33124;-96
2020/12/14 03:33:50;;;;;;;14.90;9.35;;;;;;;5.57;66.39;99745.81;4201934;34;33783;-96
2020/12/14 03:36:38;;;;;;;18.65;10.38;;;;;;;5.13;67.98;99754.63;4187830;34;32219;-94
2020/12/14 03:39:11;;;;;;;15.15;10.13;;;;;;;5.07;68.42;99761.44;4191647;34;34191;-96
2020/12/14 03:41:51;;;;;;;15.73;10.20;;;;;;;5.20;67.83;99765.59;4178629;34;33279;-96
2020/12/14 03:44:26;;;;;;;13.98;9.55;;;;;;;4.96;69.26;99761.66;4171310;34;33309;-96
2020/12/14 03:47:11;;;;;;;16.73;10.45;;;;;;;5.18;68.33;99760.38;4150624;34;35003;-96
2020/12/14 03:49:43;;;;;;;13.45;9.45;;;;;;;5.37;67.50;99756.69;4165281;34;34486;-93
2020/12/14 03:52:30;;;;;;;17.65;10.48;;;;;;;5.34;67.15;99751.66;4163682;34;34011;-96
2020/12/14 03:55:03;;;;;;;16.48;11.18;;;;;;;5.51;67.37;99763.38;4182931;34;33824;-96
2020/12/14 03:58:15;;;;;;;14.77;10.20;;;;;;;4.69;70.21;99768.72;4164295;34;32486;-96
2020/12/14 04:00:50;;;;;;;13.90;9.52;;;;;;;5.30;68.08;99774.41;4192753;34;35270;-93
2020/12/14 04:03:25;;;;;;;18.25;11.20;;;;;;;5.74;66.45;99774.44;4205077;34;35545;-96
2020/12/14 04:06:06;;;;;;;15.27;11.02;;;;;;;5.57;67.20;99783.34;4172900;34;33228;-96
2020/12/14 04:09:04;;;;;;;16.05;10.55;;;;;;;5.50;67.74;99782.31;4142205;34;32146;-95
2020/12/14 04:11:39;;;;;;;14.65;10.10;;;;;;;5.26;68.29;99781.06;4161777;34;34058;-93
2020/12/14 04:14:24;;;;;;;14.75;9.02;;;;;;;5.44;67.73;99794.47;4173618;34;33227;-96
2020/12/14 04:16:57;;;;;;;16.87;11.35;;;;;;;5.55;66.92;99790.72;4170577;34;34592;-95
2020/12/14 04:19:56;;;;;;;15.10;9.75;;;;;;;5.72;66.42;99791.69;4139953;34;33557;-96
2020/12/14 04:22:29;;;;;;;16.98;10.90;;;;;;;4.87;68.94;99797.38;4162205;34;32776;-96
2020/12/14 04:25:16;;;;;;;15.13;9.45;;;;;;;5.21;67.13;99808.31;4192523;34;35068;-96
2020/12/14 04:27:48;;;;;;;14.60;9.63;;;;;;;5.34;66.44;99807.09;4178607;34;34739;-96
2020/12/14 04:30:35;;;;;;;14.55;9.52;;;;;;;5.19;67.93;99814.81;4187817;33;32503;-96
2020/12/14 04:33:07;;;;;;;13.93;9.45;;;;;;;5.07;68.56;99815.00;4210577;33;33883;-95
2020/12/14 04:35:52;;;;;;;14.57;10.20;;;;;;;4.90;68.66;99815.84;4214286;33;32837;-96
2020/12/14 04:38:24;;;;;;;17.27;9.98;;;;;;;4.87;69.15;99824.16;4219885;33;35059;-96
2020/12/14 04:41:09;;;;;;;14.65;9.60;;;;;;;4.83;69.60;99836.16;4202073;34;33991;-96
2020/12/14 04:43:44;;;;;;;16.35;10.70;;;;;;;5.34;67.60;99832.06;4186019;34;34123;-96
2020/12/14 04:46:35;;;;;;;15.10;10.15;;;;;;;4.87;68.62;99842.91;4227832;33;33785;-96
2020/12/14 04:49:08;;;;;;;14.15;9.88;;;;;;;5.09;67.59;99839.84;4234700;33;34054;-96
2020/12/14 04:51:53;;;;;;;16.73;10.75;;;;;;;5.50;66.08;99852.00;4224417;33;32248;-94
2020/12/14 04:54:26;;;;;;;16.92;10.82;;;;;;;5.40;66.37;99852.88;4215861;33;34258;-96
2020/12/14 04:57:12;;;;;;;17.60;10.95;;;;;;;5.34;66.32;99858.03;4185966;34;35246;-94
2020/12/14 04:59:44;;;;;;;15.25;9.82;;;;;;;5.32;65.98;99858.19;4197873;34;34154;-95
2020/12/14 05:02:32;;;;;;;14.68;10.63;;;;;;;5.26;66.65;99864.16;4217163;34;34168;-96
2020/12/14 05:05:05;;;;;;;16.42;11.07;;;;;;;5.35;67.09;99865.91;4212770;33;32708;-96
2020/12/14 05:07:49;;;;;;;15.13;9.65;;;;;;;5.20;67.35;99875.47;4192087;34;34967;-93
2020/12/14 05:10:26;;;;;;;16.85;9.80;;;;;;;5.37;67.10;99873.81;4223514;33;34622;-95
2020/12/14 05:13:19;;;;;;;19.08;11.80;;;;;;;4.71;68.68;99878.34;4205201;34;33486;-95
2020/12/14 05:15:51;;;;;;;16.87;11.55;;;;;;;4.52;69.72;99890.81;4228908;33;34525;-96
2020/12/14 05:18:36;;;;;;;16.60;9.80;;;;;;;5.18;67.27;99885.47;4182763;34;34328;-94
2020/12/14 05:21:09;;;;;;;16.42;10.90;;;;;;;5.34;66.67;99885.66;4215093;34;34319;-94
2020/12/14 05:24:01;;;;;;;17.33;10.90;;;;;;;5.15;67.67;99892.00;4209346;33;34365;-95
2020/12/14 05:26:34;;;;;;;18.48;11.48;;;;;;;5.37;67.12;99889.88;4223537;33;35658;-96
2020/12/14 05:29:30;;;;;;;16.50;9.85;;;;;;;5.20;67.46;99899.59;4230546;33;34181;-96
2020/12/14 05:32:12;;;;;;;18.23;11.00;;;;;;;4.98;67.77;99896.28;4200469;33;35168;-96
2020/12/14 05:34:51;;;;;;;16.83;10.40;;;;;;;5.10;68.00;99900.47;4193379;34;34398;-96
2020/12/14 05:37:23;;;;;;;15.00;10.13;;;;;;;5.30;67.06;99906.56;4205060;34;34147;-96
2020/12/14 05:40:11;;;;;;;17.90;11.32;;;;;;;5.53;66.61;99908.00;4162093;34;34661;-95
2020/12/14 05:42:46;;;;;;;15.43;9.82;;;;;;;4.93;68.60;99909.28;4175769;34;34431;-96
2020/12/14 05:45:31;;;;;;;18.58;11.30;;;;;;;4.79;68.77;99913.28;4155834;34;35270;-96
2020/12/14 05:48:04;;;;;;;15.73;11.18;;;;;;;4.93;68.53;99918.16;4156716;34;33127;-96
2020/12/14 05:50:50;;;;;;;16.50;10.63;;;;;;;4.69;69.14;99918.66;4186685;34;32414;-95
2020/12/14 05:53:34;;;;;;;19.25;12.00;;;;;;;4.82;68.82;99925.53;4191061;34;34758;-95
2020/12/14 05:56:19;;;;;;;20.58;13.40;;;;;;;4.68;69.49;99930.34;4161008;34;34161;-95
2020/12/14 05:58:54;;;;;;;15.90;11.20;;;;;;;4.80;68.93;99933.69;4162375;34;34426;-93
2020/12/14 06:01:39;;;;;;;16.98;10.70;;;;;;;4.38;70.63;99936.75;4191128;34;33734;-96
2020/12/14 06:04:24;;;;;;;18.52;12.48;;;;;;;5.20;67.44;99939.78;4198300;34;34163;-95
2020/12/14 06:07:01;;;;;;;21.23;13.38;;;;;;;4.79;68.63;99945.44;4182188;34;34074;-93
2020/12/14 06:09:37;;;;;;;18.98;11.25;;;;;;;5.40;66.47;99945.88;4183882;34;34739;-93
2020/12/14 06:12:10;;;;;;;17.95;11.68;;;;;;;5.49;65.82;99947.66;4188305;34;33171;-94
2020/12/14 06:15:22;;;;;;;19.48;11.18;;;;;;;5.47;66.15;99944.28;4197592;34;34253;-94
2020/12/14 06:17:55;;;;;;;19.20;12.02;;;;;;;5.53;66.03;99958.94;4179097;34;33241;-93
2020/12/14 06:20:40;;;;;;;19.73;12.37;;;;;;;4.56;69.22;99960.97;4197086;34;34471;-94
2020/12/14 06:23:13;;;;;;;18.75;12.32;;;;;;;4.46;69.86;99969.00;4207825;34;35543;-96
2020/12/14 06:26:04;;;;;;;18.77;12.45;;;;;;;5.11;67.27;99968.28;4180282;34;33691;-95
2020/12/14 06:28:39;;;;;;;20.40;12.75;;;;;;;4.69;69.06;99972.22;4203950;34;35414;-95
2020/12/14 06:31:37;;;;;;;20.90;11.85;;;;;;;5.15;67.63;99966.16;4167575;28;34811;-96
2020/12/14 06:34:33;;;;;;;19.23;11.88;;;;;;;5.55;66.31;99973.03;4193392;34;33886;-96
2020/12/14 06:37:19;;;;;;;17.95;11.45;;;;;;;5.56;66.20;99974.72;4163184;34;34353;-94
2020/12/14 06:39:58;;;;;;;19.37;12.02;;;;;;;5.28;67.00;99972.03;4140259;34;33862;-96
2020/12/14 06:42:56;;;;;;;20.17;12.10;;;;;;;5.25;67.21;99972.31;4199593;34;34344;-95
2020/12/14 06:45:29;;;;;;;17.90;11.23;;;;;;;5.88;65.30;99973.41;4186385;34;34202;-96
2020/12/14 06:48:34;;;;;;;21.90;14.48;;;;;;;5.87;65.78;99966.34;4150790;34;34101;-96
2020/12/14 06:51:16;;;;;;;24.00;15.45;;;;;;;5.94;65.27;99968.28;4188237;33;33019;-96
2020/12/14 06:54:24;;;;;;;24.77;15.82;;;;;;;6.04;64.72;99967.41;4201929;34;32464;-96
2020/12/14 06:56:59;;;;;;;22.45;13.32;;;;;;;5.96;64.99;99968.13;4190509;34;34794;-95
2020/12/14 06:59:52;;;;;;;21.85;12.52;;;;;;;6.09;64.34;99965.09;4200208;34;34249;-96
2020/12/14 07:02:39;;;;;;;19.40;11.68;;;;;;;6.31;63.55;99969.16;4189280;34;32650;-96
2020/12/14 07:05:31;;;;;;;19.52;12.35;;;;;;;6.12;64.17;99979.06;4168677;34;34015;-95
2020/12/14 07:08:04;;;;;;;20.92;12.98;;;;;;;5.95;64.83;99990.59;4210417;34;33196;-95
2020/12/14 07:11:28;;;;;;;19.45;12.60;;;;;;;5.99;65.01;99986.66;4179030;34;35114;-96
2020/12/14 07:14:01;;;;;;;17.23;11.90;;;;;;;6.29;63.64;99987.28;4168268;34;34229;-96
2020/12/14 07:16:53;;;;;;;22.85;13.82;;;;;;;6.26;63.59;99996.47;4160668;34;33416;-95
2020/12/14 07:19:35;;;;;;;19.80;13.02;;;;;;;6.27;63.76;100005.34;4160808;34;34737;-93
2020/12/14 07:22:47;;;;;;;19.58;12.45;;;;;;;5.52;65.44;99994.78;4174996;34;33170;-96
2020/12/14 07:25:33;;;;;;;26.58;14.55;;;;;;;5.49;65.80;99995.91;4194189;34;33891;-95
2020/12/14 07:28:35;;;;;;;28.83;15.00;;;;;;;6.14;64.18;99995.84;4187787;34;32917;-94
2020/12/14 07:31:18;;;;;;;22.58;12.85;;;;;;;6.19;64.13;100004.28;4203161;34;32774;-94
2020/12/14 07:34:13;;;;;;;24.02;14.80;;;;;;;6.11;64.46;99998.00;4168858;34;35274;-96
2020/12/14 07:36:45;;;;;;;23.12;13.75;;;;;;;6.51;63.05;99997.53;4181215;34;33470;-93
2020/12/14 07:39:32;;;;;;;21.92;13.85;;;;;;;6.15;64.20;99997.53;4199536;34;33206;-94
2020/12/14 07:42:04;;;;;;;30.92;18.17;;;;;;;6.08;64.20;99996.47;4185868;34;35809;-91
2020/12/14 07:44:49;;;;;;;30.83;19.37;;;;;;;6.06;63.98;100001.12;4198096;33;34089;-94
2020/12/14 07:47:22;;;;;;;23.45;15.35;;;;;;;6.37;63.37;100000.75;4216851;33;32316;-95
2020/12/14 07:50:17;;;;;;;21.33;12.30;;;;;;;6.27;63.68;99997.31;4169774;34;34257;-95
2020/12/14 07:52:53;;;;;;;18.10;13.13;;;;;;;6.29;63.30;99992.66;4186704;34;32635;-96
2020/12/14 07:55:40;;;;;;;22.83;15.35;;;;;;;6.54;63.14;99997.22;4169945;34;34187;-96
2020/12/14 07:58:15;;;;;;;21.65;12.40;;;;;;;6.40;63.41;99999.63;4176132;34;32728;-96
2020/12/14 08:01:13;;;;;;;20.83;13.05;;;;;;;6.63;63.06;99994.59;4174921;34;35397;-92
2020/12/14 08:04:00;;;;;;;23.98;13.95;;;;;;;6.75;62.32;100008.62;4142717;34;34786;-94
2020/12/14 08:06:45;;;;;;;18.52;11.40;;;;;;;6.53;62.99;100010.81;4150968;34;35505;-94
2020/12/14 08:09:39;;;;;;;21.45;12.05;;;;;;;6.64;62.15;100012.41;4185880;34;33402;-95
2020/12/14 08:12:26;;;;;;;18.65;10.85;;;;;;;6.81;61.86;100016.91;4131372;34;33135;-95
2020/12/14 08:14:59;;;;;;;20.17;13.98;;;;;;;6.58;62.20;100018.41;4161033;34;34926;-95
2020/12/14 08:17:45;;;;;;;22.80;13.50;;;;;;;6.59;61.95;100010.19;4164419;34;33415;-92
2020/12/14 08:20:24;;;;;;;21.83;12.77;;;;;;;6.63;62.12;100011.56;4186841;34;35263;-94
2020/12/14 08:23:23;;;;;;;18.73;12.23;;;;;;;6.61;62.00;100012.72;4157625;34;34367;-94
2020/12/14 08:25:55;;;;;;;21.98;12.18;;;;;;;6.32;62.65;100009.28;4162104;34;33471;-94
2020/12/14 08:28:42;;;;;;;19.83;12.32;;;;;;;6.68;61.75;100020.00;4173964;34;35667;-94
2020/12/14 08:31:15;;;;;;;20.33;12.52;;;;;;;6.66;62.22;100022.00;4183377;34;33526;-93
2020/12/14 08:34:09;;;;;;;21.25;13.13;;;;;;;6.49;62.26;100015.62;4181892;34;34317;-93
2020/12/14 08:36:52;;;;;;;19.20;11.57;;;;;;;6.48;62.02;100013.97;4193289;34;33620;-94
2020/12/14 08:39:38;;;;;;;19.20;12.45;;;;;;;6.51;62.24;100024.41;4192792;34;33004;-92
2020/12/14 08:42:12;;;;;;;20.30;12.18;;;;;;;6.27;62.92;100034.88;4182278;34;34514;-95
2020/12/14 08:45:13;;;;;;;21.10;13.32;;;;;;;6.51;62.17;100039.63;4157937;34;34927;-95
2020/12/14 08:47:49;;;;;;;18.23;12.07;;;;;;;6.71;61.61;100034.97;4168120;34;33963;-95
2020/12/14 08:50:37;;;;;;;18.42;11.60;;;;;;;6.64;61.44;100033.91;4181409;34;36426;-95
2020/12/14 08:53:15;;;;;;;18.20;11.68;;;;;;;6.34;61.82;100033.28;4181634;34;33492;-96
2020/12/14 08:56:23;;;;;;;17.98;11.32;;;;;;;6.84;60.85;100040.78;4169962;34;34421;-96
2020/12/14 08:58:58;;;;;;;18.60;11.80;;;;;;;6.92;60.84;100036.47;4176801;34;34406;-95
2020/12/14 09:01:54;;;;;;;21.75;12.88;;;;;;;6.69;61.33;100053.94;4185327;33;34298;-95
2020/12/14 09:04:53;;;;;;;20.30;11.68;;;;;;;6.74;61.45;100060.66;4213104;33;33841;-96
2020/12/14 09:08:15;;;;;;;16.98;11.25;;;;;;;6.95;60.75;100052.28;4192012;34;33853;-93
2020/12/14 09:15:05;;;;;;;15.20;10.70;;;;;;;6.72;60.33;100059.00;4317003;28;20070;-93
2020/12/14 09:28:22;;;;;;;20.15;12.88;;;;;;;5.72;64.78;100036.59;4193251;34;35148;-96
2020/12/14 09:31:33;;;;;;;20.42;12.48;;;;;;;6.03;63.44;100036.31;4339473;28;32431;-95
2020/12/14 09:37:53;;;;;;;22.48;13.73;;;;;;;6.03;63.54;100033.63;4278553;28;20079;-96
2020/12/14 09:44:19;;;;;;;21.25;13.88;;;;;;;6.14;63.45;100028.06;4230954;28;31653;-94
2020/12/14 09:47:04;;;;;;;19.40;12.43;;;;;;;6.48;62.60;100022.03;4462917;28;30798;-93
2020/12/14 09:49:37;;;;;;;23.38;15.23;;;;;;;6.19;62.26;100025.75;4281475;28;33879;-93
2020/12/14 09:52:22;;;;;;;22.13;13.27;;;;;;;5.91;63.92;100027.59;4226765;28;33084;-94
2020/12/14 09:54:55;;;;;;;22.90;14.05;;;;;;;5.84;63.82;100023.84;4228553;28;32455;-92
2020/12/14 09:57:32;;;;;;;22.17;14.45;;;;;;;5.77;64.33;100026.25;4191881;34;33619;-93
2020/12/14 10:00:17;;;;;;;22.77;15.18;;;;;;;5.80;64.40;100020.59;4209644;33;35356;-96
2020/12/14 10:03:03;;;;;;;28.48;16.33;;;;;;;6.17;63.16;100027.75;4164324;34;34287;-93
2020/12/14 10:05:35;;;;;;;27.95;17.17;;;;;;;6.19;63.29;100025.75;4185883;34;34315;-93
2020/12/14 10:08:20;;;;;;;26.85;17.40;;;;;;;5.64;65.21;100031.13;4168706;34;20107;-96
2020/12/14 10:11:05;;;;;;;28.75;18.02;;;;;;;5.96;64.15;100036.06;4225994;33;33248;-93
2020/12/14 10:13:57;;;;;;;25.12;17.37;;;;;;;6.44;63.18;100031.38;4220510;33;34469;-95
2020/12/14 10:16:37;;;;;;;28.90;17.37;;;;;;;6.74;61.64;100031.97;4220071;33;34176;-96
2020/12/14 10:19:31;;;;;;;22.95;14.85;;;;;;;6.60;62.12;100028.00;4189374;34;33622;-96
2020/12/14 10:22:04;;;;;;;25.17;16.02;;;;;;;6.51;61.83;100021.72;4181330;34;33544;-96
2020/12/14 10:25:04;;;;;;;28.58;17.02;;;;;;;6.64;62.01;100020.47;4197427;33;32557;-96
2020/12/14 10:28:07;;;;;;;31.17;18.48;;;;;;;6.74;62.31;100013.16;4197746;33;33163;-96
2020/12/14 10:30:42;;;;;;;27.73;16.98;;;;;;;6.83;61.31;100016.75;4242272;28;33889;-96
2020/12/14 10:33:21;;;;;;;26.75;17.92;;;;;;;6.43;63.26;100023.47;4218816;33;34205;-96
2020/12/14 10:36:10;;;;;;;30.52;19.65;;;;;;;6.26;63.74;100014.44;4203818;34;34228;-96
2020/12/14 10:38:48;;;;;;;29.65;18.30;;;;;;;6.90;61.70;100017.78;4196155;34;35796;-96
2020/12/14 10:41:37;;;;;;;25.70;17.15;;;;;;;7.02;60.93;100021.94;4203280;34;33736;-95
2020/12/14 10:44:13;;;;;;;29.55;18.67;;;;;;;6.82;61.36;100021.28;4206669;34;34812;-95
2020/12/14 10:47:07;;;;;;;27.17;17.52;;;;;;;6.95;61.58;100025.41;4219500;33;33062;-96
2020/12/14 10:49:49;;;;;;;27.40;17.37;;;;;;;7.03;60.68;100025.47;4240954;33;33862;-92
2020/12/14 10:52:38;;;;;;;30.12;17.20;;;;;;;6.66;62.46;100018.47;4186788;34;32591;-95
2020/12/14 10:55:11;;;;;;;23.83;16.23;;;;;;;6.60;62.59;100013.72;4192325;34;33041;-96
2020/12/14 10:58:01;;;;;;;25.88;16.75;;;;;;;7.14;61.13;100019.84;4216098;33;32758;-95
2020/12/14 11:00:53;;;;;;;26.70;16.80;;;;;;;7.35;59.54;100026.66;4199920;34;32934;-94
2020/12/14 11:04:05;;;;;;;25.15;17.08;;;;;;;6.94;60.55;100018.34;4189875;34;33276;-96
2020/12/14 11:07:10;;;;;;;28.48;19.12;;;;;;;6.84;60.95;100021.97;4177207;34;34006;-96
2020/12/14 11:10:08;;;;;;;31.92;19.92;;;;;;;6.47;62.10;100023.00;4195167;34;33852;-96
2020/12/14 11:12:58;;;;;;;32.80;20.62;;;;;;;6.62;61.34;100030.53;4230199;33;32553;-95
2020/12/14 11:15:34;;;;;;;32.55;20.08;;;;;;;5.91;63.70;100032.97;4199407;33;32757;-96
2020/12/14 11:18:28;;;;;;;34.60;22.20;;;;;;;6.32;nan;100040.66;4158203;34;33023;-95
2020/12/14 11:21:30;;;;;;;39.28;23.27;;;;;;;6.25;63.02;100042.25;4203500;34;35638;-96
2020/12/14 11:24:29;;;;;;;35.15;21.40;;;;;;;5.56;65.64;100047.97;4182978;34;33725;-96
2020/12/14 11:27:17;;;;;;;36.97;22.10;;;;;;;6.26;64.34;100042.09;4186173;34;32874;-95
2020/12/14 11:30:13;;;;;;;41.28;25.08;;;;;;;6.68;63.17;100041.47;4166415;34;34476;-96
2020/12/14 11:33:16;;;;;;;35.70;21.50;;;;;;;6.61;63.30;100043.09;4148368;34;34063;-96
2020/12/14 11:36:07;;;;;;;38.88;24.05;;;;;;;6.75;63.03;100040.84;4169178;34;32402;-94
2020/12/14 11:38:41;;;;;;;39.70;22.55;;;;;;;6.64;62.76;100048.16;4167981;34;33181;-96
2020/12/14 11:41:27;;;;;;;35.17;21.65;;;;;;;6.23;63.81;100050.47;4175120;34;35143;-95
2020/12/14 11:43:59;;;;;;;41.08;24.77;;;;;;;6.87;61.81;100044.97;4189697;34;34783;-93
2020/12/14 11:46:54;;;;;;;38.70;22.77;;;;;;;6.14;64.05;100056.75;4182374;34;32614;-96
2020/12/14 11:49:34;;;;;;;36.33;22.98;;;;;;;6.34;63.97;100046.72;4186275;34;34043;-95
2020/12/14 11:52:10;;;;;;;40.83;23.55;;;;;;;6.38;63.18;100045.41;4186771;34;33422;-96
2020/12/14 11:55:25;;;;;;;39.85;22.67;;;;;;;5.88;64.72;100051.19;4187212;34;20115;-96
2020/12/14 11:57:58;;;;;;;38.97;23.10;;;;;;;5.46;66.52;100052.50;4200134;34;33106;-93
2020/12/14 12:00:41;;;;;;;45.72;24.30;;;;;;;5.31;67.08;100046.78;4200316;34;34760;-96
2020/12/14 12:04:16;;;;;;;43.43;25.83;;;;;;;5.76;65.79;100043.38;4191651;34;34033;-96
2020/12/14 12:06:48;;;;;;;40.90;24.92;;;;;;;5.84;66.32;100042.62;4185951;34;34096;-96
2020/12/14 12:09:47;;;;;;;41.33;24.77;;;;;;;5.98;65.81;100044.81;4224381;33;20149;-95
2020/12/14 12:12:51;;;;;;;45.28;26.65;;;;;;;6.18;64.75;100047.37;4210889;34;34905;-96
2020/12/14 12:15:35;;;;;;;39.38;23.83;;;;;;;6.23;64.92;100046.91;4188919;34;33058;-96
2020/12/14 12:21:49;;;;;;;35.70;23.05;;;;;;;6.67;62.96;100061.28;4221256;33;32462;-96
2020/12/14 12:24:43;;;;;;;36.08;22.83;;;;;;;6.55;63.16;100062.50;4310158;28;34392;-95
2020/12/14 12:27:33;;;;;;;34.58;21.17;;;;;;;6.49;63.40;100069.34;4190366;34;34495;-96
2020/12/14 12:30:34;;;;;;;36.20;20.73;;;;;;;6.24;64.01;100078.13;4205398;34;34627;-94
2020/12/14 12:38:13;;;;;;;;;;;;;;;;;;;;;
2020/12/14 12:45:32;;;;;;;37.67;20.92;;;;;;;5.77;66.15;100081.75;4155817;34;33357;-96
2020/12/14 12:48:32;;;;;;;34.05;21.40;;;;;;;5.82;66.29;100077.66;4145220;34;32442;-95
2020/12/14 12:52:01;;;;;;;35.35;22.58;;;;;;;6.01;65.61;100076.72;4144926;34;32706;-96
2020/12/14 12:58:29;;;;;;;38.75;24.27;;;;;;;6.26;64.48;100087.75;4179679;34;34174;-94
2020/12/14 13:01:06;;;;;;;40.55;25.00;;;;;;;6.06;64.12;100089.69;4261173;28;34069;-95
2020/12/14 13:03:51;;;;;;;40.65;24.87;;;;;;;5.92;64.84;100098.22;4245650;33;33675;-95
2020/12/14 13:07:13;;;;;;;43.78;24.98;;;;;;;5.95;65.01;100095.22;4191361;34;34251;-96
2020/12/14 13:10:03;;;;;;;45.25;25.65;;;;;;;5.48;66.39;100101.50;4211273;33;33560;-96
2020/12/14 13:12:49;;;;;;;48.92;25.62;;;;;;;5.61;66.27;100101.16;4206735;34;35148;-96
2020/12/14 13:15:34;;;;;;;42.55;26.15;;;;;;;5.43;66.54;100104.63;4205166;33;33022;-94
2020/12/14 13:18:58;;;;;;;38.67;24.60;;;;;;;5.77;65.95;100117.47;4256740;28;20150;-96
2020/12/14 13:21:51;;;;;;;46.35;24.42;;;;;;;6.23;64.01;100098.78;4197239;34;34178;-91
2020/12/14 13:24:37;;;;;;;38.60;24.48;;;;;;;5.44;65.81;100110.81;4140190;34;32544;-94